Terminal Aerodrome Forecast
Issued by NWS

Home | Current Version | Previous Version | Graphics & Text | Print | Product List | Glossary On
Versions: 1 2 3 4 5 6 7 8 9 10 11 12 13 14 15 16 17 18 19 20 21 22 23 24 25 26 27
000
FTUS43 KLOT 230900 AAA
TAFDPA
TAF AMD
KDPA 230900Z 2309/2406 02008KT 5SM BR SCT006 BKN060
      TEMPO 2309/2313 3SM BR BKN006
     FM231300 04008KT P6SM VCSH SCT008 OVC015
     FM231700 06009KT P6SM BKN020=

USA.gov is the U.S. government's official web portal to all federal, state and local government web resources and services.